Time;durP1;ratioP1;P1;durP2;ratioP2;P2;SDS_P1;SDS_P2;PMS_P1;PMS_P2;Temp;Humidity;BMP_temperature;BMP_pressure;BME280_temperature;BME280_humidity;BME280_pressure;Samples;Min_cycle;Max_cycle;Signal;HPM_P1;HPM_P2
2023/04/22 00:02:06;;;;;;;32.50;19.75;;;;;;;-146.27;100.00;83838.81;5095017;28;20081;-64
2023/04/22 00:04:32;;;;;;;35.85;20.17;;;;;;;-146.27;100.00;83883.03;5093674;28;20988;-65
2023/04/22 00:06:58;;;;;;;33.63;20.38;;;;;;;-146.27;100.00;83895.09;5092813;28;20032;-65
2023/04/22 00:09:23;;;;;;;35.50;20.35;;;;;;;-146.27;100.00;83856.91;5093901;28;20028;-65
2023/04/22 00:11:49;;;;;;;35.70;21.25;;;;;;;-146.27;100.00;83963.41;5092927;28;20435;-65
2023/04/22 00:14:14;;;;;;;34.63;20.95;;;;;;;-146.27;100.00;83917.19;5093628;28;20020;-64
2023/04/22 00:16:40;;;;;;;40.30;21.83;;;;;;;-146.27;100.00;83955.38;5095242;28;20472;-64
2023/04/22 00:19:05;;;;;;;44.83;23.10;;;;;;;-146.27;100.00;83905.13;5091758;28;20043;-66
2023/04/22 00:21:31;;;;;;;38.67;22.90;;;;;;;-146.27;100.00;83895.09;5087881;28;20484;-64
2023/04/22 00:23:57;;;;;;;34.55;20.55;;;;;;;-146.27;100.00;83911.16;5087650;28;20047;-64
2023/04/22 00:26:23;;;;;;;37.45;21.77;;;;;;;-146.27;100.00;83923.22;5083924;28;20035;-65
2023/04/22 00:28:48;;;;;;;38.72;22.83;;;;;;;-146.27;100.00;83937.28;5079483;28;20034;-65
2023/04/22 00:31:13;;;;;;;39.95;23.17;;;;;;;-146.27;100.00;83931.25;5088848;28;20456;-64
2023/04/22 00:33:39;;;;;;;41.90;22.48;;;;;;;-146.27;100.00;83927.25;5084447;28;20051;-64
2023/04/22 00:36:05;;;;;;;36.70;22.25;;;;;;;-146.27;100.00;83919.19;5095463;28;20028;-64
2023/04/22 00:38:30;;;;;;;39.38;20.90;;;;;;;-146.27;100.00;83915.19;5091984;28;20464;-65
2023/04/22 00:40:56;;;;;;;38.63;21.10;;;;;;;-146.27;100.00;83891.06;5083225;28;20377;-65
2023/04/22 00:43:21;;;;;;;39.42;22.60;;;;;;;-146.27;100.00;83933.28;5075043;28;20032;-65
2023/04/22 00:45:48;;;;;;;40.20;23.63;;;;;;;-146.27;100.00;83939.31;5077337;28;20035;-66
2023/04/22 00:48:13;;;;;;;37.08;21.67;;;;;;;-146.27;100.00;83947.34;5090042;28;20028;-65
2023/04/22 00:50:39;;;;;;;36.00;22.17;;;;;;;-146.27;100.00;83927.25;5083590;28;20495;-65
2023/04/22 00:53:04;;;;;;;38.00;22.05;;;;;;;-146.27;100.00;83941.31;5093824;28;20107;-64
2023/04/22 00:55:30;;;;;;;34.53;21.55;;;;;;;-146.27;100.00;83985.53;5092315;28;20021;-65
2023/04/22 00:57:57;;;;;;;45.33;22.13;;;;;;;-146.27;100.00;83983.50;5082623;28;20115;-65
2023/04/22 01:00:26;;;;;;;43.50;22.38;;;;;;;-146.27;100.00;83941.31;5087146;28;20069;-64
2023/04/22 01:02:55;;;;;;;40.08;21.08;;;;;;;-146.27;100.00;83987.53;5091227;28;20451;-65
2023/04/22 01:05:22;;;;;;;42.45;23.55;;;;;;;-146.27;100.00;83955.38;5093012;28;20120;-64
2023/04/22 01:07:48;;;;;;;43.63;24.33;;;;;;;-146.27;100.00;83989.53;5091941;28;20071;-65
2023/04/22 01:10:13;;;;;;;42.38;24.60;;;;;;;-146.27;100.00;83959.41;5089830;28;20042;-65
2023/04/22 01:12:39;;;;;;;44.38;23.55;;;;;;;-146.27;100.00;83991.56;5090280;28;20146;-65
2023/04/22 01:15:05;;;;;;;38.72;22.23;;;;;;;-146.27;100.00;83985.53;5093083;28;20559;-65
2023/04/22 01:17:32;;;;;;;46.75;24.05;;;;;;;-146.27;100.00;83995.56;5089501;28;20031;-64
2023/04/22 01:19:58;;;;;;;39.60;22.15;;;;;;;-146.27;100.00;83979.50;5092403;28;20077;-64
2023/04/22 01:22:32;;;;;;;48.42;25.77;;;;;;;-146.27;100.00;84019.69;5092164;28;20031;-64
2023/04/22 01:24:58;;;;;;;40.10;23.73;;;;;;;-146.27;100.00;84011.66;5087959;28;20081;-64
2023/04/22 01:27:23;;;;;;;50.15;27.48;;;;;;;-146.27;100.00;84037.78;5092005;28;20028;-64
2023/04/22 01:29:49;;;;;;;46.70;26.58;;;;;;;-146.27;100.00;84033.75;5092460;28;20016;-64
2023/04/22 01:32:14;;;;;;;41.95;24.00;;;;;;;-146.27;100.00;84031.75;5093254;28;20073;-64
2023/04/22 01:34:40;;;;;;;44.53;23.52;;;;;;;-146.27;100.00;84035.75;5093868;28;20651;-64
2023/04/22 01:37:06;;;;;;;41.10;22.73;;;;;;;-146.27;100.00;84031.75;5089535;28;20031;-64
2023/04/22 01:39:32;;;;;;;47.55;24.67;;;;;;;-146.27;100.00;84007.63;5090724;28;20437;-65
2023/04/22 01:41:58;;;;;;;39.25;22.98;;;;;;;-146.27;100.00;84071.94;5091093;28;20032;-64
2023/04/22 01:44:24;;;;;;;41.08;24.13;;;;;;;-146.27;100.00;84053.84;5088053;28;20418;-63
2023/04/22 01:46:49;;;;;;;42.33;23.98;;;;;;;-146.27;100.00;84055.84;5092075;28;20415;-63
2023/04/22 01:49:15;;;;;;;40.85;23.70;;;;;;;-146.27;100.00;84067.91;5090527;28;20050;-63
2023/04/22 01:51:40;;;;;;;42.75;24.70;;;;;;;-146.27;100.00;84079.97;5087183;28;20933;-64
2023/04/22 01:54:06;;;;;;;43.75;24.58;;;;;;;-146.27;100.00;84051.84;5084525;28;20024;-64
2023/04/22 01:56:31;;;;;;;45.33;23.85;;;;;;;-146.27;100.00;84079.97;5089505;28;20020;-65
2023/04/22 01:58:57;;;;;;;44.88;24.75;;;;;;;-146.27;100.00;84079.97;5090522;28;20028;-65
2023/04/22 02:01:22;;;;;;;46.80;23.65;;;;;;;-146.27;100.00;84053.84;5092073;28;20513;-64
2023/04/22 02:03:47;;;;;;;48.67;25.60;;;;;;;-146.27;100.00;84047.81;5089517;28;20028;-65
2023/04/22 02:06:13;;;;;;;51.10;25.13;;;;;;;-146.27;100.00;84079.97;5091843;28;20028;-65
2023/04/22 02:08:38;;;;;;;46.50;25.73;;;;;;;-146.27;100.00;84100.06;5092368;28;20056;-65
2023/04/22 02:11:03;;;;;;;49.63;26.00;;;;;;;-146.27;100.00;84059.88;5091085;28;20028;-64
2023/04/22 02:13:36;;;;;;;47.53;25.33;;;;;;;-146.27;100.00;84067.91;5091058;28;20630;-63
2023/04/22 02:16:02;;;;;;;49.90;27.60;;;;;;;-146.27;100.00;84047.81;5091863;28;20176;-65
2023/04/22 02:18:27;;;;;;;51.15;26.52;;;;;;;-146.27;100.00;84088.00;5090649;28;20120;-65
2023/04/22 02:20:53;;;;;;;51.15;27.65;;;;;;;-146.27;100.00;84162.38;5092687;28;20028;-64
2023/04/22 02:23:18;;;;;;;49.25;26.92;;;;;;;-146.27;100.00;84092.03;5092039;28;20071;-64
2023/04/22 02:25:51;;;;;;;52.67;27.42;;;;;;;-146.27;100.00;84043.81;5086867;28;20041;-66
2023/04/22 02:28:17;;;;;;;52.10;28.05;;;;;;;-146.27;100.00;84071.94;5087308;28;20055;-64
2023/04/22 02:30:43;;;;;;;48.65;26.27;;;;;;;-146.27;100.00;84088.00;5090087;28;20024;-64
2023/04/22 02:33:09;;;;;;;51.72;29.33;;;;;;;-146.27;100.00;84071.94;5090725;28;20028;-65
2023/04/22 02:35:34;;;;;;;58.13;32.05;;;;;;;-146.27;100.00;84067.91;5090903;28;20031;-64
2023/04/22 02:37:59;;;;;;;61.00;31.95;;;;;;;-146.27;100.00;84063.91;5090716;28;20040;-65
2023/04/22 02:40:25;;;;;;;65.32;35.03;;;;;;;-146.27;100.00;84079.97;5083322;28;20076;-64
2023/04/22 02:42:50;;;;;;;61.92;32.83;;;;;;;-146.27;100.00;84043.81;5082185;28;20036;-64
2023/04/22 02:45:16;;;;;;;62.13;31.55;;;;;;;-146.27;100.00;84079.97;5090848;28;20464;-64
2023/04/22 02:47:41;;;;;;;59.80;31.48;;;;;;;-146.27;100.00;84100.06;5091220;28;20483;-65
2023/04/22 02:50:07;;;;;;;56.08;30.35;;;;;;;-146.27;100.00;84098.06;5089113;28;20102;-63
2023/04/22 02:52:33;;;;;;;60.53;31.42;;;;;;;-146.27;100.00;84084.00;5088986;28;20019;-64
2023/04/22 02:55:00;;;;;;;63.35;32.38;;;;;;;-146.27;100.00;84096.06;5084925;28;20034;-63
2023/04/22 02:57:25;;;;;;;65.13;32.45;;;;;;;-146.27;100.00;84086.00;5081698;28;20024;-64
2023/04/22 02:59:51;;;;;;;56.17;31.05;;;;;;;-146.27;100.00;84071.94;5087418;28;20509;-64
2023/04/22 03:02:16;;;;;;;58.20;31.25;;;;;;;-146.27;100.00;84079.97;5086846;28;20433;-63
2023/04/22 03:04:41;;;;;;;60.00;31.13;;;;;;;-146.27;100.00;84077.97;5088938;28;20052;-65
2023/04/22 03:07:07;;;;;;;58.95;30.70;;;;;;;-146.27;100.00;84071.94;5085453;28;20336;-63
2023/04/22 03:09:32;;;;;;;65.75;33.65;;;;;;;-146.27;100.00;84075.94;5080596;28;20031;-63
2023/04/22 03:11:57;;;;;;;67.50;34.38;;;;;;;-146.27;100.00;84061.88;5089603;28;20028;-64
2023/04/22 03:14:23;;;;;;;61.92;31.02;;;;;;;-146.27;100.00;84061.88;5089228;28;20028;-64
2023/04/22 03:16:48;;;;;;;57.70;30.00;;;;;;;-146.27;100.00;84077.97;5087450;28;20032;-64
2023/04/22 03:19:15;;;;;;;63.03;32.92;;;;;;;-146.27;100.00;84071.94;5090610;28;20069;-65
2023/04/22 03:21:40;;;;;;;62.45;32.92;;;;;;;-146.27;100.00;84067.91;5089632;28;20036;-64
2023/04/22 03:24:05;;;;;;;66.45;32.25;;;;;;;-146.27;100.00;84096.06;5091957;28;20107;-65
2023/04/22 03:26:30;;;;;;;57.22;29.98;;;;;;;-146.27;100.00;84086.00;5088349;28;20034;-64
2023/04/22 03:28:56;;;;;;;56.95;29.83;;;;;;;-146.27;100.00;84112.13;5082709;28;20067;-64
2023/04/22 03:31:21;;;;;;;62.85;33.47;;;;;;;-146.27;100.00;84063.91;5086940;28;20164;-63
2023/04/22 03:33:46;;;;;;;62.80;32.63;;;;;;;-146.27;100.00;84086.00;5090717;28;20054;-64
2023/04/22 03:36:12;;;;;;;65.20;31.88;;;;;;;-146.27;100.00;84055.84;5086737;28;20023;-64
2023/04/22 03:38:37;;;;;;;57.65;30.55;;;;;;;-146.27;100.00;84057.88;5087205;28;20028;-65
2023/04/22 03:41:02;;;;;;;59.40;29.65;;;;;;;-146.27;100.00;84079.97;5073730;28;20029;-65
2023/04/22 03:43:28;;;;;;;62.53;30.77;;;;;;;-146.27;100.00;84079.97;5083994;28;20032;-64
2023/04/22 03:45:53;;;;;;;56.35;30.35;;;;;;;-146.27;100.00;84055.84;5092338;28;20017;-64
2023/04/22 03:48:18;;;;;;;60.83;31.85;;;;;;;-146.27;100.00;84035.75;5090847;28;20028;-63
2023/04/22 03:50:44;;;;;;;62.40;32.28;;;;;;;-146.27;100.00;84086.00;5090988;28;20024;-64
2023/04/22 03:53:10;;;;;;;58.00;30.73;;;;;;;-146.27;100.00;84084.00;5087151;28;20029;-64
2023/04/22 03:55:35;;;;;;;57.67;30.48;;;;;;;-146.27;100.00;84081.97;5084156;28;20020;-64
2023/04/22 03:58:00;;;;;;;67.22;34.00;;;;;;;-146.27;100.00;84063.91;5092221;28;20024;-64
2023/04/22 04:00:26;;;;;;;62.38;31.95;;;;;;;-146.27;100.00;84077.97;5090525;28;20024;-64
2023/04/22 04:02:51;;;;;;;59.85;31.30;;;;;;;-146.27;100.00;84098.06;5088622;28;20034;-63
2023/04/22 04:05:17;;;;;;;57.92;29.95;;;;;;;-146.27;100.00;84063.91;5089672;28;20115;-64
2023/04/22 04:07:42;;;;;;;58.47;31.52;;;;;;;-146.27;100.00;84067.91;5085562;28;20048;-65
2023/04/22 04:10:10;;;;;;;64.45;32.20;;;;;;;-146.27;100.00;84086.00;5091172;28;20059;-63
2023/04/22 04:12:35;;;;;;;66.90;33.03;;;;;;;-146.27;100.00;84011.66;5088683;28;20012;-64
2023/04/22 04:15:01;;;;;;;55.17;31.73;;;;;;;-146.27;100.00;84019.69;5091626;28;20081;-64
2023/04/22 04:17:27;;;;;;;65.82;35.42;;;;;;;-146.27;100.00;84035.75;5090372;28;20531;-65
2023/04/22 04:19:53;;;;;;;71.50;39.15;;;;;;;-146.27;100.00;84081.97;5091866;28;20074;-64
2023/04/22 04:22:19;;;;;;;60.97;33.50;;;;;;;-146.27;100.00;84063.91;5089721;28;20055;-65
2023/04/22 04:24:46;;;;;;;58.85;32.72;;;;;;;-146.27;100.00;84035.75;5089944;28;20068;-64
2023/04/22 04:27:12;;;;;;;58.22;30.98;;;;;;;-146.27;100.00;84015.66;5074320;28;20021;-65
2023/04/22 04:29:38;;;;;;;60.90;30.20;;;;;;;-146.27;100.00;84092.03;5087423;28;20109;-65
2023/04/22 04:32:04;;;;;;;56.40;31.55;;;;;;;-146.27;100.00;84053.84;5081641;28;20435;-65
2023/04/22 04:34:31;;;;;;;53.53;30.33;;;;;;;-146.27;100.00;84071.94;5088347;28;20081;-65
2023/04/22 04:36:56;;;;;;;52.13;29.73;;;;;;;-146.27;100.00;84053.84;5091152;28;20035;-64
2023/04/22 04:39:22;;;;;;;54.83;28.83;;;;;;;-146.27;100.00;84069.94;5089664;28;20028;-64
2023/04/22 04:41:48;;;;;;;51.95;29.77;;;;;;;-146.27;100.00;84096.06;5090385;28;20059;-63
2023/04/22 04:44:14;;;;;;;54.67;30.08;;;;;;;-146.27;100.00;84071.94;5090663;28;20051;-64
2023/04/22 04:46:40;;;;;;;54.33;29.23;;;;;;;-146.27;100.00;84059.88;5086599;28;20024;-64
2023/04/22 04:49:08;;;;;;;58.05;30.67;;;;;;;-146.27;100.00;84023.69;5093039;28;20028;-65
2023/04/22 04:51:34;;;;;;;51.53;28.77;;;;;;;-146.27;100.00;84071.94;5089629;28;20020;-64
2023/04/22 04:53:59;;;;;;;62.47;30.17;;;;;;;-146.27;100.00;84059.88;5086774;28;20043;-64
2023/04/22 04:56:24;;;;;;;53.05;28.80;;;;;;;-146.27;100.00;84071.94;5090347;28;20031;-63
2023/04/22 04:58:50;;;;;;;55.30;29.42;;;;;;;-146.27;100.00;84086.00;5088800;28;20028;-64
2023/04/22 05:01:15;;;;;;;48.05;26.23;;;;;;;-146.27;100.00;84079.97;5089892;28;20020;-65
2023/04/22 05:03:40;;;;;;;45.03;26.17;;;;;;;-146.27;100.00;84088.00;5092409;28;20046;-64
2023/04/22 05:06:06;;;;;;;53.83;29.45;;;;;;;-146.27;100.00;84084.00;5088274;28;20035;-64
2023/04/22 05:08:31;;;;;;;43.90;24.85;;;;;;;-146.27;100.00;84079.97;5091234;28;20051;-63
2023/04/22 05:10:56;;;;;;;50.72;26.38;;;;;;;-146.27;100.00;84079.97;5090454;28;20028;-65
2023/04/22 05:13:22;;;;;;;52.67;28.52;;;;;;;-146.27;100.00;84051.84;5094593;28;20020;-65
2023/04/22 05:15:47;;;;;;;58.90;30.27;;;;;;;-146.27;100.00;84079.97;5083762;28;20252;-64
2023/04/22 05:18:13;;;;;;;50.17;28.55;;;;;;;-146.27;100.00;84065.91;5089133;28;20062;-65
2023/04/22 05:20:38;;;;;;;57.90;30.40;;;;;;;-146.27;100.00;84043.81;5091050;28;20081;-63
2023/04/22 05:23:03;;;;;;;55.08;27.95;;;;;;;-146.27;100.00;84071.94;5077929;28;20532;-64
2023/04/22 05:25:29;;;;;;;58.28;30.80;;;;;;;-146.27;100.00;84055.84;5085523;28;20020;-64
2023/04/22 05:27:54;;;;;;;55.17;29.63;;;;;;;-146.27;100.00;84035.75;5084484;28;20035;-64
2023/04/22 05:30:19;;;;;;;51.88;27.67;;;;;;;-146.27;100.00;84031.75;5092582;28;20068;-64
2023/04/22 05:32:45;;;;;;;55.25;28.70;;;;;;;-146.27;100.00;84057.88;5092351;28;20383;-65
2023/04/22 05:35:10;;;;;;;52.25;28.83;;;;;;;-146.27;100.00;84055.84;5086590;28;20024;-64
2023/04/22 05:37:36;;;;;;;59.63;30.85;;;;;;;-146.27;100.00;83989.53;5092835;28;20024;-64
2023/04/22 05:40:01;;;;;;;57.15;30.33;;;;;;;-146.27;100.00;84043.81;5093304;28;20032;-64
2023/04/22 05:42:26;;;;;;;52.28;30.20;;;;;;;-146.27;100.00;84027.72;5087459;28;20137;-65
2023/04/22 05:44:51;;;;;;;52.05;28.73;;;;;;;-146.27;100.00;84017.69;5091996;28;20401;-64
2023/04/22 05:47:17;;;;;;;53.42;28.25;;;;;;;-146.27;100.00;84015.66;5083093;28;20058;-65
2023/04/22 05:49:42;;;;;;;57.75;30.88;;;;;;;-146.27;100.00;84021.69;5092179;28;20066;-65
2023/04/22 05:52:07;;;;;;;51.03;28.33;;;;;;;-146.27;100.00;84011.66;5093004;28;20047;-65
2023/04/22 05:54:33;;;;;;;55.65;29.90;;;;;;;-146.27;100.00;83983.50;5093452;28;20023;-64
2023/04/22 05:56:58;;;;;;;51.92;29.42;;;;;;;-146.27;100.00;83995.56;5090497;28;20035;-65
2023/04/22 05:59:24;;;;;;;55.03;31.10;;;;;;;-146.27;100.00;83987.53;5093347;28;20437;-64
2023/04/22 06:01:49;;;;;;;49.80;27.83;;;;;;;-146.27;100.00;83967.44;5079320;28;20483;-64
2023/04/22 06:04:15;;;;;;;51.90;29.63;;;;;;;-146.27;100.00;83971.47;5090249;28;20479;-64
2023/04/22 06:06:40;;;;;;;54.53;30.02;;;;;;;-146.27;100.00;83971.47;5092071;28;20032;-65
2023/04/22 06:09:06;;;;;;;52.50;29.73;;;;;;;-146.27;100.00;83969.44;5092310;28;20080;-64
2023/04/22 06:11:35;;;;;;;57.35;30.98;;;;;;;-146.27;100.00;83911.16;5088659;28;20024;-64
2023/04/22 06:14:00;;;;;;;51.03;30.63;;;;;;;-146.27;100.00;83971.47;5090268;28;20028;-64
2023/04/22 06:16:26;;;;;;;56.33;29.80;;;;;;;-146.27;100.00;83905.13;5085522;28;20024;-64
2023/04/22 06:18:51;;;;;;;60.55;31.20;;;;;;;-146.27;100.00;83903.13;5085078;28;20038;-65
2023/04/22 06:21:17;;;;;;;55.58;29.80;;;;;;;-146.27;100.00;83858.91;5088914;28;20384;-65
2023/04/22 06:23:42;;;;;;;53.97;30.13;;;;;;;-146.27;100.00;83901.13;5088149;28;20115;-63
2023/04/22 06:26:08;;;;;;;55.40;30.77;;;;;;;-146.27;100.00;83923.22;5087718;28;20107;-65
2023/04/22 06:28:33;;;;;;;53.67;29.58;;;;;;;-146.27;100.00;83915.19;5091104;28;20570;-64
2023/04/22 06:30:58;;;;;;;50.45;28.35;;;;;;;-146.27;100.00;83945.31;5089407;28;20016;-65
2023/04/22 06:33:24;;;;;;;52.25;29.33;;;;;;;-146.27;100.00;83887.06;5087881;28;20055;-65
2023/04/22 06:35:49;;;;;;;57.90;31.20;;;;;;;-146.27;100.00;83891.06;5089660;28;20028;-63
2023/04/22 06:38:14;;;;;;;52.63;29.65;;;;;;;-146.27;100.00;83945.31;5087653;28;20036;-63
2023/04/22 06:40:40;;;;;;;50.45;28.27;;;;;;;-146.27;100.00;83915.19;5085777;28;20384;-65
2023/04/22 06:43:05;;;;;;;51.15;29.63;;;;;;;-146.27;100.00;83909.16;5092300;28;20028;-63
2023/04/22 06:45:31;;;;;;;52.75;30.40;;;;;;;-146.27;100.00;83895.09;5090451;28;20322;-63
2023/04/22 06:47:56;;;;;;;51.90;29.98;;;;;;;-146.27;100.00;83881.03;5085654;28;20044;-65
2023/04/22 06:50:21;;;;;;;54.53;30.58;;;;;;;-146.27;100.00;83846.84;5087360;28;20024;-68
2023/04/22 06:52:47;;;;;;;48.30;29.35;;;;;;;-146.27;100.00;83838.81;5093346;28;20032;-67
2023/04/22 06:55:12;;;;;;;49.00;28.83;;;;;;;-146.27;100.00;83879.00;5091717;28;20024;-67
2023/04/22 06:57:38;;;;;;;47.17;28.15;;;;;;;-146.27;100.00;83820.75;5091863;28;20464;-68
2023/04/22 07:00:07;;;;;;;46.97;28.05;;;;;;;-146.27;100.00;83848.88;5085367;28;20024;-67
2023/04/22 07:02:32;;;;;;;43.55;27.33;;;;;;;-146.27;100.00;83794.63;5089238;28;20396;-68
2023/04/22 07:04:58;;;;;;;44.08;27.35;;;;;;;-146.27;100.00;83808.69;5079560;28;20020;-67
2023/04/22 07:07:23;;;;;;;43.95;26.52;;;;;;;-146.27;100.00;83798.63;5083176;28;20082;-67
2023/04/22 07:09:49;;;;;;;41.10;25.30;;;;;;;-146.27;100.00;83796.63;5085753;28;20020;-67
2023/04/22 07:12:14;;;;;;;40.85;25.15;;;;;;;-146.27;100.00;83766.47;5090399;28;20073;-67
2023/04/22 07:14:43;;;;;;;35.17;23.42;;;;;;;-146.27;100.00;83762.47;5084353;28;20419;-67
2023/04/22 07:17:09;;;;;;;38.05;24.13;;;;;;;-146.27;100.00;83766.47;5087767;28;20471;-68
2023/04/22 07:19:35;;;;;;;39.55;25.15;;;;;;;-146.27;100.00;83756.44;5084690;28;20020;-65
2023/04/22 07:22:02;;;;;;;42.22;24.45;;;;;;;-146.27;100.00;83728.31;5081297;28;20028;-64
2023/04/22 07:24:27;;;;;;;42.55;25.50;;;;;;;-146.27;100.00;83714.22;5090016;28;20570;-64
2023/04/22 07:26:52;;;;;;;37.05;24.08;;;;;;;-146.27;100.00;83676.06;5090075;28;20027;-65
2023/04/22 07:29:18;;;;;;;33.88;21.95;;;;;;;-146.27;100.00;83674.03;5086812;28;20099;-63
2023/04/22 07:31:43;;;;;;;32.05;20.98;;;;;;;-146.27;100.00;83653.94;5078052;28;20024;-64
2023/04/22 07:34:09;;;;;;;31.92;21.88;;;;;;;-146.27;100.00;83649.94;5087991;28;20106;-63
2023/04/22 07:36:35;;;;;;;30.75;19.63;;;;;;;-146.27;100.00;83637.88;5083306;28;20031;-65
2023/04/22 07:39:00;;;;;;;26.13;18.35;;;;;;;-146.27;100.00;83645.91;5092507;28;20024;-64
2023/04/22 07:41:26;;;;;;;31.52;19.35;;;;;;;-146.27;100.00;83597.69;5079707;28;20094;-63
2023/04/22 07:43:51;;;;;;;29.98;18.23;;;;;;;-146.27;100.00;83597.69;5088559;28;20032;-64
2023/04/22 07:46:17;;;;;;;29.25;18.75;;;;;;;-146.27;100.00;83549.47;5084039;28;20073;-64
2023/04/22 07:48:42;;;;;;;27.63;18.58;;;;;;;-146.27;100.00;83581.59;5089280;28;20365;-64
2023/04/22 07:51:07;;;;;;;26.77;18.80;;;;;;;-146.27;100.00;83571.56;5087680;28;20031;-64
2023/04/22 07:53:33;;;;;;;28.45;19.90;;;;;;;-146.27;100.00;83619.78;5090048;28;20464;-64
2023/04/22 07:56:00;;;;;;;29.55;20.77;;;;;;;-146.27;100.00;83555.50;5089170;28;20103;-64
2023/04/22 07:58:25;;;;;;;33.67;22.23;;;;;;;-146.27;100.00;83503.25;5090871;28;20020;-64
2023/04/22 08:00:50;;;;;;;31.70;20.73;;;;;;;-146.27;100.00;83565.53;5085861;28;20032;-64
2023/04/22 08:03:16;;;;;;;30.38;21.35;;;;;;;-146.27;100.00;83547.44;5084328;28;20020;-64
2023/04/22 08:05:41;;;;;;;29.23;20.42;;;;;;;-146.27;100.00;83531.38;5090397;28;20116;-64
2023/04/22 08:08:07;;;;;;;26.83;18.95;;;;;;;-146.27;100.00;83483.16;5090262;28;20040;-64
2023/04/22 08:10:32;;;;;;;25.85;19.02;;;;;;;-146.27;100.00;83424.88;5090360;28;20087;-64
2023/04/22 08:12:57;;;;;;;24.50;17.80;;;;;;;-146.27;100.00;83477.13;5092277;28;20059;-64
2023/04/22 08:15:23;;;;;;;28.73;18.15;;;;;;;-146.27;100.00;83457.03;5082613;28;20130;-64
2023/04/22 08:17:48;;;;;;;28.60;17.40;;;;;;;-146.27;100.00;83416.84;5078481;28;20412;-64
2023/04/22 08:20:14;;;;;;;25.42;18.08;;;;;;;-146.27;100.00;83390.72;5085111;28;22132;-63
2023/04/22 08:22:41;;;;;;;25.88;18.00;;;;;;;-146.27;100.00;83392.72;5094281;28;20048;-64
2023/04/22 08:25:08;;;;;;;21.92;16.25;;;;;;;-146.27;100.00;83388.72;5085769;28;20032;-64
2023/04/22 08:27:33;;;;;;;18.98;13.60;;;;;;;-146.27;100.00;83360.59;5092592;28;20472;-64
2023/04/22 08:29:59;;;;;;;18.70;13.60;;;;;;;-146.27;100.00;83352.53;5092157;28;20044;-63
2023/04/22 08:32:25;;;;;;;17.35;13.25;;;;;;;-146.27;100.00;83350.53;5083676;28;20028;-64
2023/04/22 08:34:50;;;;;;;18.75;13.15;;;;;;;-146.27;100.00;83280.22;5093898;28;20451;-65
2023/04/22 08:37:16;;;;;;;17.83;11.57;;;;;;;-146.27;100.00;83296.28;5095446;28;20024;-64
2023/04/22 08:39:41;;;;;;;15.15;10.70;;;;;;;-146.27;100.00;83294.28;5082700;28;20035;-64
2023/04/22 08:42:07;;;;;;;14.82;11.27;;;;;;;-146.27;98.98;83280.22;5087445;28;20016;-64
2023/04/22 08:44:34;;;;;;;16.50;12.60;;;;;;;-146.27;100.00;83248.06;5089437;28;20111;-65
2023/04/22 08:47:00;;;;;;;16.90;11.93;;;;;;;-146.27;99.66;83244.03;5078284;28;20025;-63
2023/04/22 08:49:25;;;;;;;17.60;12.98;;;;;;;-146.27;100.00;83201.84;5080583;28;20378;-63
2023/04/22 08:51:52;;;;;;;18.15;13.32;;;;;;;-146.27;99.48;83205.88;5080394;28;20571;-64
2023/04/22 08:54:18;;;;;;;12.85;10.18;;;;;;;-146.27;100.00;83155.63;5087992;28;20020;-66
2023/04/22 08:56:44;;;;;;;13.38;10.30;;;;;;;-146.27;100.00;83159.66;5082523;28;20340;-65
2023/04/22 08:59:11;;;;;;;10.98;8.63;;;;;;;-146.27;93.39;83143.59;5086667;28;20035;-66
2023/04/22 09:01:40;;;;;;;10.98;8.60;;;;;;;-146.27;93.57;83173.72;5087506;28;20028;-65
2023/04/22 09:04:09;;;;;;;9.68;7.47;;;;;;;-146.27;98.44;83137.56;5088909;28;20020;-63
2023/04/22 09:06:34;;;;;;;7.88;5.40;;;;;;;-146.27;94.21;83047.16;5082518;28;20024;-63
2023/04/22 09:09:00;;;;;;;8.20;6.38;;;;;;;-146.27;95.90;83055.19;5094415;28;20056;-64
2023/04/22 09:11:27;;;;;;;10.45;7.82;;;;;;;-146.27;99.99;83025.03;5086606;28;20157;-63
2023/04/22 09:13:56;;;;;;;11.15;7.88;;;;;;;-146.27;95.22;83023.03;5084932;28;20519;-63
2023/04/22 09:16:21;;;;;;;7.95;6.18;;;;;;;-146.27;86.40;83004.94;5089303;28;20430;-66
2023/04/22 09:18:46;;;;;;;9.70;7.68;;;;;;;-146.27;91.50;82962.75;5088496;28;20046;-68
2023/04/22 09:21:12;;;;;;;7.43;6.65;;;;;;;-146.27;96.65;82958.75;5089418;28;20051;-66
2023/04/22 09:23:52;;;;;;;8.40;6.63;;;;;;;-146.27;97.44;83013.00;5093807;28;20523;-68
2023/04/22 09:26:23;;;;;;;9.90;7.45;;;;;;;-146.27;95.55;83067.25;5092115;28;20027;-68
2023/04/22 09:28:59;;;;;;;10.50;7.70;;;;;;;-146.27;94.52;83017.00;5091948;28;20470;-67
2023/04/22 09:31:24;;;;;;;8.48;6.97;;;;;;;-146.27;96.68;83010.97;5087575;28;20426;-67
2023/04/22 09:33:52;;;;;;;9.68;6.97;;;;;;;-146.27;98.07;83002.94;5085076;28;20020;-67
2023/04/22 09:36:28;;;;;;;7.63;6.28;;;;;;;-146.27;95.58;83023.03;5091862;28;20024;-67
2023/04/22 09:38:56;;;;;;;6.72;5.82;;;;;;;-146.27;91.77;83067.25;5093338;28;20035;-68
2023/04/22 09:41:29;;;;;;;7.72;6.35;;;;;;;-146.27;96.25;83073.25;5084075;28;20035;-68
2023/04/22 09:43:56;;;;;;;7.75;6.32;;;;;;;-146.27;92.17;83045.13;5083436;28;20028;-66
2023/04/22 09:46:23;;;;;;;7.53;6.43;;;;;;;-146.27;90.57;83041.13;5094043;28;20438;-66
2023/04/22 09:48:49;;;;;;;21.83;6.93;;;;;;;-146.27;88.50;83055.19;5089221;28;20020;-68
2023/04/22 09:51:16;;;;;;;12.20;6.78;;;;;;;-146.27;93.93;83043.13;5093046;28;20024;-66
2023/04/22 09:53:41;;;;;;;9.68;7.30;;;;;;;-146.27;95.73;83043.13;5092011;28;20035;-67
2023/04/22 09:56:07;;;;;;;8.63;6.60;;;;;;;-146.27;89.31;83037.09;5093139;28;20020;-68
2023/04/22 09:58:37;;;;;;;10.50;6.50;;;;;;;-146.27;90.89;83013.00;5091132;28;20046;-67
2023/04/22 10:01:03;;;;;;;13.45;7.57;;;;;;;-146.27;93.83;82970.81;5088571;28;20031;-67
2023/04/22 10:03:28;;;;;;;8.38;6.60;;;;;;;-146.27;85.18;82962.75;5085085;28;20380;-64
2023/04/22 10:05:54;;;;;;;9.48;6.78;;;;;;;-146.27;82.33;82906.50;5090253;28;20024;-65
2023/04/22 10:08:19;;;;;;;10.18;7.47;;;;;;;-146.27;80.35;82858.28;5086214;28;20134;-64
2023/04/22 10:10:45;;;;;;;8.32;6.88;;;;;;;-146.27;80.74;82785.97;5091213;28;20384;-64
2023/04/22 10:13:13;;;;;;;8.13;7.22;;;;;;;-146.27;79.72;82798.03;5085321;28;20027;-63
2023/04/22 10:15:47;;;;;;;8.70;7.38;;;;;;;-146.27;78.65;82737.75;5093978;28;20034;-63
2023/04/22 10:18:17;;;;;;;11.73;7.57;;;;;;;-146.27;81.41;82719.66;5074867;28;20028;-64
2023/04/22 10:20:45;;;;;;;8.63;6.85;;;;;;;-146.27;77.56;82733.72;5084646;28;20123;-64
2023/04/22 10:23:17;;;;;;;8.25;6.88;;;;;;;-146.27;74.60;82743.78;5088088;28;20137;-64
2023/04/22 10:25:46;;;;;;;8.70;6.68;;;;;;;-146.27;75.20;82745.78;5092512;28;20032;-63
2023/04/22 10:28:15;;;;;;;9.73;7.53;;;;;;;-146.27;76.56;82802.03;5089471;28;20111;-63
2023/04/22 10:30:40;;;;;;;8.88;6.57;;;;;;;-146.27;79.18;82810.06;5082305;28;20023;-64
2023/04/22 10:33:27;;;;;;;10.63;7.95;;;;;;;-146.27;84.56;82838.19;5087329;28;20032;-65
2023/04/22 10:36:04;;;;;;;9.02;7.57;;;;;;;-146.27;82.82;82858.28;5085503;28;20491;-64
2023/04/22 10:38:33;;;;;;;9.90;7.88;;;;;;;-146.27;82.62;82910.53;5090006;28;20415;-65
2023/04/22 10:40:59;;;;;;;11.85;9.23;;;;;;;-146.27;81.99;82916.56;5089321;28;20052;-68
2023/04/22 10:43:40;;;;;;;13.85;9.60;;;;;;;-146.27;83.76;82966.78;5088319;28;20119;-66
2023/04/22 10:46:05;;;;;;;13.13;8.13;;;;;;;-146.27;83.39;82998.94;5072893;28;20032;-66
2023/04/22 10:48:47;;;;;;;13.40;9.20;;;;;;;-146.27;83.45;83013.00;5084208;28;20035;-67
2023/04/22 10:51:37;;;;;;;11.77;9.18;;;;;;;-146.27;82.85;83027.06;5076707;28;20020;-67
2023/04/22 10:54:03;;;;;;;11.07;8.98;;;;;;;-146.27;82.80;83055.19;5087163;28;20110;-67